Details for Flybe at EGPH




Go Back


Latest METAR
Local Time

EGPH 170850Z 23012KT 9999 SCT017 14/11 Q1012
17/08/2018, 10:02:28

Description
Results
Flybe Logo
Number of Pilots based at EGPH
0 Pilots Based here
Number of Flybe Flights Departed from EGPH
15 Flights Departed
Number of Flybe Flights Arrived at EGPH
15 Flights Arrived
Number of Flybe Schedules Departing from EGPH
45 Schedules
Number of Flybe Schedules Arriving at EGPH
46 Schedules
Number of Flybe Schedules Departing from EGPH availible today
35 Schedules Today
Number of Flybe Schedules Arriving at EGPH availible today
35 Schedules Today
Average Landing Rate at EGPH
-238 fpm
Flybe Average Landing Rate at EGPH
-189 fpm
Total Fuel Purchased at EGPH by Flybe
13,406.38 kgs / 29,555.71 lbs

Pilots Based at EGPH


Pilot ID
Pilot Name
Pilot Rank
No. of Flights
No. of Flying Hours
There are no pilots assigned to this hub!   Will you be the first?
Content